Terminal Aerodrome Forecast
Issued by NWS Sterling, VA

Home | Current Version | Previous Version | Text Only | Print | Product List | Glossary On
Versions: 1 2 3 4 5 6 7 8 9 10 11 12 13 14 15 16 17
000
FTUS41 KLWX 221100
TAFMRB
TAF
KMRB 221136Z 2212/2312 25005KT 6SM BR FEW060
     FM221400 00000KT P6SM BKN025
     FM221600 00000KT P6SM SCT030 BKN045
     FM221900 00000KT P6SM VCTS SCT030CB BKN060
     FM222300 00000KT P6SM SCT030 OVC200
     FM230600 VRB03KT 5SM BR OVC090=

USA.gov is the U.S. government's official web portal to all federal, state and local government web resources and services.